Terminal Aerodrome Forecast
Issued by NWS

Home | Current Version | Previous Version | Text Only | Print | Product List | Glossary On
Versions: 1 2 3 4 5 6 7 8 9 10 11 12 13 14 15 16 17 18 19
000
FTUS41 KILN 182300 RRA
TAFLCK
TAF
KLCK 182343Z 1900/1924 06008KT P6SM SCT120 OVC250
     FM191200 10011KT P6SM VCSH OVC080
     FM191500 10017G26KT 5SM -SHRA OVC050
     FM192200 15016G26KT 3SM -SHRA BR OVC018=

USA.gov is the U.S. government's official web portal to all federal, state and local government web resources and services.